createdAt,value
2017-11-23T00:00:53.269Z,78.37
2017-11-23T00:01:57.003Z,78.47
2017-11-23T00:03:00.747Z,78.58
2017-11-23T00:04:04.499Z,78.13
2017-11-23T00:05:08.245Z,78.40
2017-11-23T00:06:11.930Z,78.40
2017-11-23T00:07:15.638Z,78.53
2017-11-23T00:08:19.348Z,78.43
2017-11-23T00:09:23.059Z,78.47
2017-11-23T00:10:26.773Z,78.69
2017-11-23T00:11:30.475Z,78.31
2017-11-23T00:12:34.383Z,78.55
2017-11-23T00:13:39.426Z,78.71
2017-11-23T00:14:43.296Z,78.52
2017-11-23T00:15:46.990Z,78.65
2017-11-23T00:16:50.790Z,78.29
2017-11-23T00:17:54.524Z,78.60
2017-11-23T00:18:58.503Z,78.58
2017-11-23T00:20:02.152Z,78.62
2017-11-23T00:21:05.968Z,78.85
2017-11-23T00:22:09.667Z,78.51
2017-11-23T00:23:13.478Z,78.60
2017-11-23T00:24:17.176Z,78.21
2017-11-23T00:25:21.215Z,78.04
2017-11-23T00:26:24.982Z,78.26
2017-11-23T00:27:28.735Z,77.90
2017-11-23T00:28:32.430Z,78.06
2017-11-23T00:29:36.205Z,78.22
2017-11-23T00:30:39.995Z,78.45
2017-11-23T00:31:44.129Z,78.23
2017-11-23T00:32:47.887Z,78.01
2017-11-23T00:33:51.598Z,78.08
2017-11-23T00:34:55.319Z,78.26
2017-11-23T00:35:59.042Z,78.60
2017-11-23T00:37:03.377Z,78.57
2017-11-23T00:38:07.355Z,78.99
2017-11-23T00:39:11.077Z,79.10
2017-11-23T00:40:14.943Z,79.06
2017-11-23T00:41:18.688Z,79.00
2017-11-23T00:42:22.291Z,79.17
2017-11-23T00:43:25.979Z,79.28
2017-11-23T00:44:30.035Z,78.58
2017-11-23T00:45:33.815Z,78.82
2017-11-23T00:46:37.500Z,78.81
2017-11-23T00:47:41.186Z,79.13
2017-11-23T00:48:44.739Z,79.22
2017-11-23T00:49:48.299Z,78.96
2017-11-23T00:50:52.140Z,79.32
2017-11-23T00:51:55.662Z,79.37
2017-11-23T00:52:59.197Z,79.84
2017-11-23T00:54:03.404Z,80.11
2017-11-23T00:55:06.991Z,80.55
2017-11-23T00:56:10.703Z,80.69
2017-11-23T00:57:15.476Z,80.52
2017-11-23T00:58:19.273Z,80.69
2017-11-23T00:59:23.010Z,80.56
2017-11-23T01:00:26.669Z,80.22
2017-11-23T01:01:30.149Z,80.57
2017-11-23T01:02:33.849Z,80.37
2017-11-23T01:03:37.732Z,80.63
2017-11-23T01:04:41.457Z,80.50
2017-11-23T01:05:45.150Z,80.49
2017-11-23T01:06:48.824Z,80.37
2017-11-23T01:07:52.459Z,79.94
2017-11-23T01:08:56.058Z,80.09
2017-11-23T01:10:01.314Z,80.31
2017-11-23T01:11:05.101Z,80.56
2017-11-23T01:12:08.830Z,80.64
2017-11-23T01:13:12.498Z,80.68
2017-11-23T01:14:16.245Z,80.97
2017-11-23T01:15:19.917Z,81.30
2017-11-23T01:16:23.589Z,81.52
2017-11-23T01:17:27.337Z,81.57
2017-11-23T01:18:31.031Z,81.53
2017-11-23T01:19:34.703Z,80.94
2017-11-23T01:20:38.415Z,81.28
2017-11-23T01:21:42.379Z,81.15
2017-11-23T01:22:45.931Z,80.49
2017-11-23T01:23:49.555Z,80.51
2017-11-23T01:24:53.177Z,80.26
2017-11-23T01:25:56.870Z,80.04
2017-11-23T01:27:00.581Z,79.75
2017-11-23T01:28:04.631Z,79.54
2017-11-23T01:29:08.301Z,79.47
2017-11-23T01:30:12.069Z,80.13
2017-11-23T01:31:15.750Z,80.44
2017-11-23T01:32:19.482Z,80.63
2017-11-23T01:33:23.916Z,80.31
2017-11-23T01:34:27.942Z,80.24
2017-11-23T01:35:31.687Z,80.16
2017-11-23T01:36:36.876Z,80.11
2017-11-23T01:37:40.583Z,80.11
2017-11-23T01:38:44.298Z,80.55
2017-11-23T01:39:48.062Z,81.03
2017-11-23T01:40:51.786Z,81.47
2017-11-23T01:41:55.460Z,81.73
2017-11-23T01:42:59.225Z,81.75
2017-11-23T01:44:02.950Z,81.58
2017-11-23T01:45:06.618Z,81.49
2017-11-23T01:46:10.398Z,81.29
2017-11-23T01:47:14.391Z,81.20
2017-11-23T01:48:18.142Z,81.19
2017-11-23T01:49:21.847Z,81.16
2017-11-23T01:50:25.585Z,80.95
2017-11-23T01:51:29.324Z,81.16
2017-11-23T01:52:33.073Z,81.13
2017-11-23T01:53:37.131Z,81.07
2017-11-23T01:54:40.915Z,81.16
2017-11-23T01:55:44.838Z,81.00
2017-11-23T01:56:48.652Z,80.84
2017-11-23T01:57:52.475Z,80.72
2017-11-23T01:58:56.271Z,80.72
2017-11-23T02:00:00.490Z,81.00
2017-11-23T02:01:04.250Z,80.63
2017-11-23T02:02:08.022Z,80.43
2017-11-23T02:03:11.808Z,80.06
2017-11-23T02:04:15.586Z,80.57
2017-11-23T02:05:19.364Z,80.86
2017-11-23T02:06:23.908Z,80.94
2017-11-23T02:07:27.722Z,80.72
2017-11-23T02:08:31.545Z,80.68
2017-11-23T02:09:35.322Z,80.55
2017-11-23T02:10:39.151Z,80.53
2017-11-23T02:11:43.052Z,80.80
2017-11-23T02:12:47.174Z,80.77
2017-11-23T02:13:50.973Z,80.50
2017-11-23T02:14:54.732Z,80.80
2017-11-23T02:15:58.499Z,80.39
2017-11-23T02:17:02.271Z,80.25
2017-11-23T02:18:05.448Z,80.03
2017-11-23T02:19:09.504Z,78.70
2017-11-23T02:20:13.300Z,78.80
2017-11-23T02:21:17.094Z,81.15
2017-11-23T02:22:21.023Z,81.62
2017-11-23T02:23:24.985Z,81.93
2017-11-23T02:24:28.861Z,81.91
2017-11-23T02:25:33.043Z,81.82
2017-11-23T02:26:37.390Z,81.38
2017-11-23T02:27:41.129Z,81.46
2017-11-23T02:28:44.956Z,81.90
2017-11-23T02:29:48.778Z,81.88
2017-11-23T02:30:52.629Z,81.40
2017-11-23T02:31:56.724Z,81.60
2017-11-23T02:33:00.546Z,81.35
2017-11-23T02:34:04.451Z,81.96
2017-11-23T02:35:08.300Z,82.31
2017-11-23T02:36:12.153Z,82.28
2017-11-23T02:37:16.073Z,81.77
2017-11-23T02:38:20.176Z,81.27
2017-11-23T02:39:23.960Z,80.80
2017-11-23T02:40:27.768Z,80.10
2017-11-23T02:41:31.612Z,79.84
2017-11-23T02:42:35.249Z,80.05
2017-11-23T02:43:38.975Z,80.03
2017-11-23T02:44:42.935Z,80.80
2017-11-23T02:45:46.619Z,80.43
2017-11-23T02:46:50.287Z,80.08
2017-11-23T02:47:53.976Z,80.12
2017-11-23T02:48:57.641Z,80.39
2017-11-23T02:50:01.451Z,80.46
2017-11-23T02:51:05.731Z,79.99
2017-11-23T02:52:09.604Z,80.38
2017-11-23T02:53:13.418Z,80.49
2017-11-23T02:54:17.191Z,80.18
2017-11-23T02:55:20.846Z,80.30
2017-11-23T02:56:24.629Z,80.05
2017-11-23T02:57:28.780Z,79.81
2017-11-23T02:58:32.609Z,79.79
2017-11-23T02:59:36.431Z,78.27
2017-11-23T03:00:40.293Z,77.89
2017-11-23T03:01:44.507Z,77.32
2017-11-23T03:02:48.280Z,77.14
2017-11-23T03:03:52.437Z,77.27
2017-11-23T03:04:57.198Z,77.15
2017-11-23T03:06:00.992Z,76.72
2017-11-23T03:07:04.836Z,76.75
2017-11-23T03:08:08.632Z,76.71
2017-11-23T03:09:12.452Z,77.21
2017-11-23T03:10:16.608Z,76.69
2017-11-23T03:11:20.416Z,75.50
2017-11-23T03:12:24.325Z,75.69
2017-11-23T03:13:28.076Z,74.35
2017-11-23T03:14:31.961Z,73.73
2017-11-23T03:15:35.731Z,74.16
2017-11-23T03:16:39.870Z,75.54
2017-11-23T03:17:43.639Z,75.82
2017-11-23T03:18:47.342Z,75.00
2017-11-23T03:19:51.153Z,74.65
2017-11-23T03:20:54.914Z,74.67
2017-11-23T03:21:58.664Z,75.58
2017-11-23T03:23:02.915Z,74.80
2017-11-23T03:24:06.686Z,74.33
2017-11-23T03:25:10.988Z,74.90
2017-11-23T03:26:14.712Z,74.80
2017-11-23T03:27:18.505Z,73.66
2017-11-23T03:28:22.219Z,74.15
2017-11-23T03:29:26.331Z,73.74
2017-11-23T03:30:30.208Z,73.83
2017-11-23T03:31:34.031Z,74.67
2017-11-23T03:32:37.859Z,73.70
2017-11-23T03:33:41.628Z,73.81
2017-11-23T03:34:45.438Z,73.65
2017-11-23T03:35:49.727Z,73.05
2017-11-23T03:36:53.725Z,73.45
2017-11-23T03:37:57.836Z,73.35
2017-11-23T03:39:01.655Z,73.02
2017-11-23T03:40:05.461Z,73.26
2017-11-23T03:41:09.345Z,72.60
2017-11-23T03:42:13.705Z,72.34
2017-11-23T03:43:17.557Z,72.79
2017-11-23T03:44:21.475Z,72.33
2017-11-23T03:45:25.322Z,72.07
2017-11-23T03:46:29.183Z,72.44
2017-11-23T03:47:33.021Z,72.79
2017-11-23T03:48:37.296Z,72.88
2017-11-23T03:49:41.444Z,72.90
2017-11-23T03:50:45.685Z,72.88
2017-11-23T03:51:49.539Z,72.57
2017-11-23T03:52:53.414Z,72.50
2017-11-23T03:53:57.149Z,72.61
2017-11-23T03:55:01.171Z,72.46
2017-11-23T03:56:04.847Z,72.54
2017-11-23T03:57:08.569Z,72.67
2017-11-23T03:58:12.247Z,71.42
2017-11-23T03:59:15.956Z,72.29
2017-11-23T04:00:19.619Z,72.41
2017-11-23T04:01:23.680Z,72.13
2017-11-23T04:02:27.492Z,72.39
2017-11-23T04:03:31.290Z,72.53
2017-11-23T04:04:35.136Z,72.37
2017-11-23T04:05:38.966Z,72.25
2017-11-23T04:06:42.776Z,72.44
2017-11-23T04:07:46.918Z,72.36
2017-11-23T04:08:50.704Z,71.89
2017-11-23T04:09:55.533Z,72.05
2017-11-23T04:10:59.340Z,72.12
2017-11-23T04:12:03.169Z,72.41
2017-11-23T04:13:06.991Z,72.53
2017-11-23T04:14:11.608Z,72.35
2017-11-23T04:15:15.532Z,72.24
2017-11-23T04:16:19.474Z,72.09
2017-11-23T04:17:23.299Z,72.24
2017-11-23T04:18:27.126Z,72.36
2017-11-23T04:19:31.020Z,72.17
2017-11-23T04:20:35.186Z,71.85
2017-11-23T04:21:39.012Z,71.79
2017-11-23T04:22:43.658Z,71.92
2017-11-23T04:23:47.505Z,71.64
2017-11-23T04:24:51.365Z,71.79
2017-11-23T04:25:55.329Z,71.82
2017-11-23T04:26:59.688Z,71.52
2017-11-23T04:28:03.491Z,71.39
2017-11-23T04:29:07.427Z,71.39
2017-11-23T04:30:11.286Z,70.93
2017-11-23T04:31:16.020Z,71.00
2017-11-23T04:32:20.551Z,70.67
2017-11-23T04:33:24.573Z,70.61
2017-11-23T04:34:28.150Z,70.82
2017-11-23T04:35:31.897Z,71.03
2017-11-23T04:36:35.607Z,70.80
2017-11-23T04:37:39.364Z,70.71
2017-11-23T04:38:43.087Z,70.79
2017-11-23T04:39:47.162Z,70.87
2017-11-23T04:40:50.929Z,71.05
2017-11-23T04:41:54.657Z,71.45
2017-11-23T04:42:58.397Z,71.37
2017-11-23T04:44:02.122Z,71.22
2017-11-23T04:45:05.828Z,71.09
2017-11-23T04:46:09.715Z,70.73
2017-11-23T04:47:13.608Z,70.58
2017-11-23T04:48:17.504Z,70.42
2017-11-23T04:49:21.347Z,70.43
2017-11-23T04:50:25.197Z,70.23
2017-11-23T04:51:29.365Z,70.12
2017-11-23T04:52:33.261Z,70.33
2017-11-23T04:53:37.013Z,70.02
2017-11-23T04:54:40.721Z,69.68
2017-11-23T04:55:44.564Z,69.88
2017-11-23T04:56:48.452Z,69.18
2017-11-23T04:57:52.781Z,69.38
2017-11-23T04:58:56.608Z,69.44
2017-11-23T05:00:00.458Z,69.47
2017-11-23T05:15:26.208Z,74.15
2017-11-23T05:16:29.991Z,73.66
2017-11-23T05:17:33.684Z,70.95
2017-11-23T05:18:37.340Z,70.00
2017-11-23T05:19:41.020Z,69.93
2017-11-23T05:20:45.328Z,69.49
2017-11-23T05:21:49.174Z,68.80
2017-11-23T05:22:53.076Z,67.79
2017-11-23T05:23:56.858Z,68.18
2017-11-23T05:25:01.022Z,68.11
2017-11-23T05:26:04.855Z,67.78
2017-11-23T05:27:09.053Z,67.67
2017-11-23T05:28:12.901Z,66.79
2017-11-23T05:29:16.747Z,66.63
2017-11-23T05:30:20.566Z,67.23
2017-11-23T05:31:24.377Z,68.01
2017-11-23T05:32:39.185Z,67.75
2017-11-23T05:33:42.948Z,68.46
2017-11-23T05:34:46.682Z,68.95
2017-11-23T05:35:50.468Z,69.34
2017-11-23T05:36:54.197Z,68.94
2017-11-23T05:37:58.018Z,68.68
2017-11-23T05:39:02.267Z,68.85
2017-11-23T05:40:06.055Z,69.24
2017-11-23T05:41:09.853Z,69.40
2017-11-23T05:42:13.635Z,69.61
2017-11-23T05:43:17.563Z,69.49
2017-11-23T05:44:21.317Z,69.44
2017-11-23T05:45:25.455Z,69.56
2017-11-23T05:46:29.217Z,69.69
2017-11-23T05:47:33.044Z,69.00
2017-11-23T05:48:36.898Z,69.17
2017-11-23T05:49:40.758Z,69.26
2017-11-23T05:50:44.542Z,69.61
2017-11-23T05:51:48.705Z,69.37
2017-11-23T05:52:52.528Z,68.91
2017-11-23T05:53:56.340Z,69.01
2017-11-23T05:55:00.103Z,69.11
2017-11-23T05:56:03.928Z,69.50
2017-11-23T05:57:07.668Z,69.81
2017-11-23T05:58:11.492Z,69.98
2017-11-23T05:59:15.372Z,70.17
2017-11-23T06:00:19.208Z,70.92
2017-11-23T06:01:22.994Z,71.30
2017-11-23T06:02:26.935Z,71.36
2017-11-23T06:03:31.202Z,71.45
2017-11-23T06:04:35.080Z,70.98
2017-11-23T06:05:39.031Z,70.66
2017-11-23T06:06:42.705Z,70.73
2017-11-23T06:07:46.364Z,70.62
2017-11-23T06:08:50.124Z,70.46
2017-11-23T06:09:54.687Z,70.29
2017-11-23T06:10:58.393Z,70.40
2017-11-23T06:12:02.204Z,70.56
2017-11-23T06:13:05.992Z,70.23
2017-11-23T06:14:09.847Z,70.53
2017-11-23T06:15:13.602Z,70.47
2017-11-23T06:16:17.774Z,70.05
2017-11-23T06:17:21.590Z,70.42
2017-11-23T06:18:25.577Z,70.86
2017-11-23T06:19:29.410Z,71.04
2017-11-23T06:20:33.338Z,71.36
2017-11-23T06:21:37.131Z,71.39
2017-11-23T06:22:41.402Z,71.22
2017-11-23T06:23:45.274Z,71.32
2017-11-23T06:24:49.130Z,71.05
2017-11-23T06:25:52.807Z,70.66
2017-11-23T06:26:56.547Z,70.23
2017-11-23T06:28:01.000Z,70.41
2017-11-23T06:29:05.244Z,70.17
2017-11-23T06:30:08.991Z,70.42
2017-11-23T06:31:12.786Z,70.07
2017-11-23T06:32:16.641Z,70.69
2017-11-23T06:33:20.458Z,70.64
2017-11-23T06:34:24.664Z,70.30
2017-11-23T06:35:28.794Z,70.30
2017-11-23T06:36:32.715Z,70.25
2017-11-23T06:37:36.595Z,70.43
2017-11-23T06:38:40.387Z,69.92
2017-11-23T06:39:44.497Z,69.91
2017-11-23T06:40:48.459Z,70.39
2017-11-23T06:41:52.311Z,70.77
2017-11-23T06:42:56.301Z,70.91
2017-11-23T06:44:00.174Z,70.95
2017-11-23T06:45:04.275Z,70.64
2017-11-23T06:46:08.108Z,70.48
2017-11-23T06:47:12.260Z,70.06
2017-11-23T06:48:16.062Z,69.96
2017-11-23T06:49:20.047Z,69.69
2017-11-23T06:50:23.848Z,69.39
2017-11-23T06:51:27.726Z,69.16
2017-11-23T06:52:31.556Z,69.43
2017-11-23T06:53:35.685Z,69.66
2017-11-23T06:54:39.518Z,69.47
2017-11-23T06:55:43.355Z,70.28
2017-11-23T06:56:48.145Z,70.46
2017-11-23T06:57:51.967Z,70.86
2017-11-23T06:58:55.795Z,70.77
2017-11-23T06:59:59.898Z,71.21
2017-11-23T07:01:03.774Z,71.47
2017-11-23T07:02:08.418Z,71.44
2017-11-23T07:03:12.253Z,71.39
2017-11-23T07:04:16.074Z,71.06
2017-11-23T07:05:19.924Z,70.71
2017-11-23T07:06:24.154Z,70.52
2017-11-23T07:07:28.042Z,70.87
2017-11-23T07:08:31.941Z,70.54
2017-11-23T07:09:35.790Z,70.37
2017-11-23T07:10:39.606Z,70.85
2017-11-23T07:11:43.461Z,70.94
2017-11-23T07:12:47.529Z,70.78
2017-11-23T07:13:52.034Z,69.88
2017-11-23T07:14:55.843Z,70.22
2017-11-23T07:15:59.799Z,70.29
2017-11-23T07:17:03.682Z,70.01
2017-11-23T07:18:07.650Z,69.81
2017-11-23T07:19:11.474Z,69.63
2017-11-23T07:20:15.356Z,69.54
2017-11-23T07:21:19.186Z,69.69
2017-11-23T07:22:22.961Z,69.18
2017-11-23T07:23:26.811Z,69.50
2017-11-23T07:24:31.060Z,69.86
2017-11-23T07:25:34.879Z,69.55
2017-11-23T07:26:38.691Z,70.47
2017-11-23T07:27:43.304Z,70.98
2017-11-23T07:28:51.169Z,71.63
2017-11-23T07:29:55.060Z,71.55
2017-11-23T07:30:59.139Z,70.70
2017-11-23T07:32:02.978Z,70.53
2017-11-23T07:33:06.824Z,70.87
2017-11-23T07:34:10.632Z,70.89
2017-11-23T07:35:14.482Z,71.11
2017-11-23T07:36:18.613Z,70.71
2017-11-23T07:37:22.404Z,70.78
2017-11-23T07:38:26.247Z,70.77
2017-11-23T07:39:30.072Z,70.79
2017-11-23T07:40:33.868Z,70.49
2017-11-23T07:41:37.683Z,70.42
2017-11-23T07:42:42.744Z,69.99
2017-11-23T07:43:46.590Z,70.03
2017-11-23T07:44:50.437Z,70.29
2017-11-23T07:45:54.186Z,70.39
2017-11-23T07:46:58.042Z,70.71
2017-11-23T07:48:01.741Z,70.62
2017-11-23T07:49:05.733Z,70.01
2017-11-23T07:50:09.483Z,70.29
2017-11-23T07:51:13.341Z,70.92
2017-11-23T07:52:17.167Z,70.37
2017-11-23T07:53:20.983Z,70.54
2017-11-23T07:54:24.805Z,70.21
2017-11-23T07:55:28.904Z,70.39
2017-11-23T07:56:32.695Z,70.43
2017-11-23T07:57:36.534Z,70.27
2017-11-23T07:58:40.388Z,70.74
2017-11-23T07:59:44.178Z,69.84
2017-11-23T08:00:48.153Z,70.06
2017-11-23T08:01:52.354Z,69.61
2017-11-23T08:02:56.197Z,69.53
2017-11-23T08:03:59.922Z,69.79
2017-11-23T08:05:03.825Z,69.57
2017-11-23T08:06:07.662Z,69.08
2017-11-23T08:07:11.596Z,69.49
2017-11-23T08:08:15.912Z,70.70
2017-11-23T08:09:21.360Z,69.80
2017-11-23T08:10:26.364Z,69.49
2017-11-23T08:11:31.204Z,70.10
2017-11-23T08:12:35.889Z,70.13
2017-11-23T08:13:41.514Z,70.05
2017-11-23T08:14:47.460Z,69.88
2017-11-23T08:15:51.240Z,69.74
2017-11-23T08:16:56.809Z,69.48
2017-11-23T08:18:00.648Z,69.60
2017-11-23T08:19:04.894Z,69.67
2017-11-23T08:20:08.668Z,69.65
2017-11-23T08:21:12.700Z,69.68
2017-11-23T08:22:16.308Z,69.98
2017-11-23T08:23:20.101Z,70.00
2017-11-23T08:24:23.877Z,69.70
2017-11-23T08:25:27.745Z,69.82
2017-11-23T08:26:31.535Z,70.38
2017-11-23T08:27:35.876Z,70.48
2017-11-23T08:28:40.279Z,69.91
2017-11-23T08:29:47.594Z,69.86
2017-11-23T08:30:51.423Z,70.02
2017-11-23T08:31:55.186Z,69.59
2017-11-23T08:32:58.928Z,69.69
2017-11-23T08:34:03.343Z,69.63
2017-11-23T08:35:07.145Z,69.47
2017-11-23T08:36:11.004Z,69.82
2017-11-23T08:37:14.765Z,69.92
2017-11-23T08:38:18.636Z,70.07
2017-11-23T08:39:22.768Z,69.70
2017-11-23T08:40:27.208Z,69.53
2017-11-23T08:41:30.940Z,69.37
2017-11-23T08:42:34.832Z,69.24
2017-11-23T08:43:38.580Z,69.16
2017-11-23T08:44:42.350Z,69.26
2017-11-23T08:45:46.378Z,69.27
2017-11-23T08:46:50.341Z,69.48
2017-11-23T08:47:53.980Z,69.35
2017-11-23T08:48:57.646Z,69.37
2017-11-23T08:50:01.400Z,69.26
2017-11-23T08:51:05.838Z,68.85
2017-11-23T08:52:11.544Z,68.93
2017-11-23T08:53:17.513Z,68.81
2017-11-23T08:54:21.234Z,68.76
2017-11-23T08:55:27.993Z,68.91
2017-11-23T08:56:31.748Z,68.93
2017-11-23T08:57:35.637Z,69.05
2017-11-23T08:58:39.388Z,68.73
2017-11-23T08:59:43.516Z,68.64
2017-11-23T09:00:47.219Z,68.97
2017-11-23T09:01:55.869Z,69.19
2017-11-23T09:03:14.726Z,69.05
2017-11-23T09:04:18.524Z,68.93
2017-11-23T09:05:22.510Z,69.15
2017-11-23T09:06:26.959Z,68.89
2017-11-23T09:07:30.855Z,68.38
2017-11-23T09:08:34.838Z,68.76
2017-11-23T09:09:38.829Z,68.54
2017-11-23T09:10:42.717Z,68.33
2017-11-23T09:11:48.866Z,68.23
2017-11-23T09:12:52.777Z,67.82
2017-11-23T09:13:56.749Z,67.84
2017-11-23T09:15:00.580Z,68.13
2017-11-23T09:16:04.373Z,68.33
2017-11-23T09:17:08.183Z,68.00
2017-11-23T09:18:12.544Z,68.23
2017-11-23T09:19:16.317Z,67.99
2017-11-23T09:20:20.105Z,67.89
2017-11-23T09:21:24.432Z,68.25
2017-11-23T09:22:28.345Z,67.55
2017-11-23T09:23:32.184Z,67.40
2017-11-23T09:24:36.361Z,67.38
2017-11-23T09:25:40.063Z,66.99
2017-11-23T09:26:43.837Z,66.91
2017-11-23T09:27:47.915Z,66.74
2017-11-23T09:28:51.760Z,67.19
2017-11-23T09:29:56.319Z,67.16
2017-11-23T09:31:00.787Z,67.07
2017-11-23T09:32:04.990Z,67.08
2017-11-23T09:33:08.754Z,67.24
2017-11-23T09:34:12.530Z,67.14
2017-11-23T09:35:16.346Z,66.85
2017-11-23T09:36:20.126Z,67.22
2017-11-23T09:37:24.264Z,67.21
2017-11-23T09:38:28.230Z,67.40
2017-11-23T09:39:32.107Z,66.68
2017-11-23T09:40:37.434Z,66.52
2017-11-23T09:41:41.259Z,66.20
2017-11-23T09:42:45.026Z,66.50
2017-11-23T09:43:49.186Z,66.65
2017-11-23T09:44:52.920Z,66.54
2017-11-23T09:45:56.666Z,66.25
2017-11-23T09:47:00.515Z,66.93
2017-11-23T09:48:04.312Z,66.94
2017-11-23T09:49:08.048Z,66.65
2017-11-23T09:50:12.084Z,66.22
2017-11-23T09:51:15.916Z,65.81
2017-11-23T09:52:19.667Z,65.61
2017-11-23T09:53:23.424Z,65.20
2017-11-23T09:54:27.212Z,65.04
2017-11-23T09:55:31.017Z,65.17
2017-11-23T09:56:35.085Z,64.60
2017-11-23T09:57:38.818Z,63.66
2017-11-23T09:58:42.601Z,61.91
2017-11-23T09:59:46.487Z,61.67
2017-11-23T10:00:50.600Z,62.90
2017-11-23T10:01:54.393Z,62.19
2017-11-23T10:02:58.579Z,61.30
2017-11-23T10:04:02.387Z,60.48
2017-11-23T10:05:06.209Z,61.94
2017-11-23T10:06:10.011Z,62.99
2017-11-23T10:07:14.056Z,64.02
2017-11-23T10:08:17.858Z,64.70
2017-11-23T10:09:22.263Z,64.54
2017-11-23T10:10:26.505Z,63.93
2017-11-23T10:11:30.268Z,64.14
2017-11-23T10:12:34.084Z,63.67
2017-11-23T10:13:37.900Z,64.29
2017-11-23T10:14:45.641Z,64.52
2017-11-23T10:15:49.896Z,64.52
2017-11-23T10:16:53.702Z,64.88
2017-11-23T10:17:57.469Z,65.15
2017-11-23T10:19:01.285Z,64.37
2017-11-23T10:20:05.036Z,64.21
2017-11-23T10:21:08.811Z,63.70
2017-11-23T10:22:13.387Z,64.15
2017-11-23T10:23:17.224Z,64.47
2017-11-23T10:24:20.942Z,64.76
2017-11-23T10:25:24.705Z,64.99
2017-11-23T10:26:28.484Z,65.23
2017-11-23T10:27:32.399Z,65.09
2017-11-23T10:28:36.512Z,65.27
2017-11-23T10:29:40.359Z,65.43
2017-11-23T10:30:44.226Z,65.09
2017-11-23T10:31:49.760Z,65.42
2017-11-23T10:32:53.534Z,65.59
2017-11-23T10:33:57.309Z,65.35
2017-11-23T10:35:01.854Z,65.73
2017-11-23T10:36:05.665Z,66.45
2017-11-23T10:37:11.491Z,65.94
2017-11-23T10:38:15.533Z,66.13
2017-11-23T10:39:19.507Z,65.89
2017-11-23T10:40:23.834Z,65.92
2017-11-23T10:41:28.425Z,65.97
2017-11-23T10:42:32.293Z,66.00
2017-11-23T10:43:36.047Z,65.73
2017-11-23T10:44:39.958Z,65.89
2017-11-23T10:45:43.757Z,65.95
2017-11-23T10:46:47.536Z,66.17
2017-11-23T10:47:53.627Z,65.82
2017-11-23T10:48:57.525Z,65.98
2017-11-23T10:50:01.768Z,65.93
2017-11-23T10:51:05.638Z,65.83
2017-11-23T10:52:09.497Z,66.55
2017-11-23T10:53:14.460Z,66.02
2017-11-23T10:54:18.743Z,65.60
2017-11-23T10:55:23.090Z,66.04
2017-11-23T10:56:27.258Z,66.13
2017-11-23T10:57:32.294Z,66.71
2017-11-23T10:58:37.880Z,66.71
2017-11-23T11:15:37.863Z,69.07
2017-11-23T11:16:41.784Z,67.73
2017-11-23T11:17:45.444Z,66.92
2017-11-23T11:18:49.963Z,66.64
2017-11-23T11:19:53.782Z,66.56
2017-11-23T11:20:58.060Z,66.80
2017-11-23T11:22:02.210Z,66.54
2017-11-23T11:23:06.471Z,66.59
2017-11-23T11:24:10.259Z,66.36
2017-11-23T11:25:14.013Z,66.40
2017-11-23T11:26:18.283Z,66.30
2017-11-23T11:27:23.197Z,66.51
2017-11-23T11:28:27.105Z,66.50
2017-11-23T11:29:31.872Z,66.50
2017-11-23T11:30:35.696Z,66.56
2017-11-23T11:35:42.677Z,67.46
2017-11-23T11:36:46.722Z,67.12
2017-11-23T11:37:50.694Z,66.70
2017-11-23T11:38:54.575Z,66.96
2017-11-23T11:39:59.286Z,67.17
2017-11-23T11:41:03.259Z,66.64
2017-11-23T11:42:07.829Z,66.64
2017-11-23T11:43:11.582Z,66.45
2017-11-23T11:44:15.374Z,66.41
2017-11-23T11:45:19.180Z,66.60
2017-11-23T11:46:22.968Z,66.63
2017-11-23T11:47:27.675Z,66.77
2017-11-23T11:48:31.477Z,66.83
2017-11-23T11:49:35.427Z,67.14
2017-11-23T11:50:39.226Z,66.86
2017-11-23T11:51:43.012Z,66.84
2017-11-23T11:52:46.799Z,67.03
2017-11-23T11:53:51.044Z,67.25
2017-11-23T11:54:54.814Z,67.32
2017-11-23T11:55:58.638Z,67.83
2017-11-23T11:57:02.460Z,67.39
2017-11-23T11:58:06.254Z,67.41
2017-11-23T11:59:09.955Z,67.91
2017-11-23T12:00:14.485Z,67.68
2017-11-23T12:01:18.093Z,68.06
2017-11-23T12:02:22.484Z,68.02
2017-11-23T12:03:26.092Z,67.83
2017-11-23T12:04:29.798Z,67.99
2017-11-23T12:05:33.384Z,67.85
2017-11-23T12:06:37.568Z,68.18
2017-11-23T12:07:41.204Z,68.81
2017-11-23T12:08:44.947Z,68.69
2017-11-23T12:09:48.768Z,67.97
2017-11-23T12:10:52.568Z,67.84
2017-11-23T12:11:56.829Z,67.67
2017-11-23T12:13:00.788Z,67.60
2017-11-23T12:14:08.773Z,67.67
2017-11-23T12:15:16.755Z,68.02
2017-11-23T12:16:25.103Z,67.23
2017-11-23T12:17:32.894Z,67.54
2017-11-23T12:18:41.255Z,67.74
2017-11-23T12:19:49.754Z,67.71
2017-11-23T12:20:57.839Z,67.87
2017-11-23T12:22:05.801Z,67.95
2017-11-23T12:23:14.085Z,67.80
2017-11-23T12:24:22.643Z,68.01
2017-11-23T12:25:30.833Z,68.69
2017-11-23T12:26:34.643Z,68.64
2017-11-23T12:27:42.802Z,68.63
2017-11-23T12:28:51.082Z,68.71
2017-11-23T12:30:00.528Z,68.82
2017-11-23T12:31:04.474Z,69.81
2017-11-23T12:32:08.367Z,70.09
2017-11-23T12:33:12.132Z,70.87
2017-11-23T12:34:15.925Z,71.12
2017-11-23T12:35:20.353Z,71.14
2017-11-23T12:36:25.722Z,71.66
2017-11-23T12:37:29.786Z,72.26
2017-11-23T12:38:33.640Z,72.29
2017-11-23T12:39:37.543Z,71.86
2017-11-23T12:40:41.390Z,71.68
2017-11-23T12:41:45.277Z,71.73
2017-11-23T12:42:49.958Z,71.60
2017-11-23T12:43:53.757Z,71.38
2017-11-23T12:44:57.565Z,71.25
2017-11-23T12:46:01.841Z,70.87
2017-11-23T12:47:05.879Z,70.99
2017-11-23T12:48:09.921Z,70.75
2017-11-23T12:49:14.076Z,71.15
2017-11-23T12:50:18.362Z,71.54
2017-11-23T12:51:22.286Z,70.44
2017-11-23T12:52:26.357Z,70.59
2017-11-23T12:53:30.495Z,70.75
2017-11-23T12:54:34.606Z,71.00
2017-11-23T12:55:38.753Z,71.39
2017-11-23T12:56:42.800Z,71.06
2017-11-23T12:57:46.652Z,70.66
2017-11-23T12:58:50.620Z,70.67
2017-11-23T12:59:54.789Z,70.14
2017-11-23T13:00:58.792Z,70.26
2017-11-23T13:02:04.051Z,70.08
2017-11-23T13:03:07.911Z,70.19
2017-11-23T13:04:11.846Z,70.22
2017-11-23T13:05:15.725Z,70.29
2017-11-23T13:06:19.991Z,70.32
2017-11-23T13:07:25.485Z,70.71
2017-11-23T13:08:29.358Z,70.04
2017-11-23T13:09:33.266Z,69.50
2017-11-23T13:10:36.948Z,69.34
2017-11-23T13:11:40.853Z,69.49
2017-11-23T13:12:44.547Z,69.40
2017-11-23T13:13:48.661Z,69.60
2017-11-23T13:14:52.396Z,69.42
2017-11-23T13:15:56.217Z,69.48
2017-11-23T13:16:59.904Z,69.52
2017-11-23T13:18:04.276Z,69.54
2017-11-23T13:19:08.181Z,69.75
2017-11-23T13:20:12.506Z,69.65
2017-11-23T13:21:16.399Z,69.52
2017-11-23T13:22:20.799Z,69.83
2017-11-23T13:23:24.623Z,69.55
2017-11-23T13:24:28.648Z,69.67
2017-11-23T13:25:32.572Z,69.64
2017-11-23T13:26:36.611Z,69.96
2017-11-23T13:27:40.152Z,69.70
2017-11-23T13:28:43.842Z,69.25
2017-11-23T13:29:47.735Z,69.47
2017-11-23T13:30:52.201Z,69.46
2017-11-23T13:31:56.360Z,69.79
2017-11-23T13:33:00.445Z,70.03
2017-11-23T13:34:04.068Z,69.91
2017-11-23T13:35:07.659Z,70.14
2017-11-23T13:36:11.385Z,70.32
2017-11-23T13:37:15.153Z,70.55
2017-11-23T13:38:19.021Z,70.21
2017-11-23T13:39:23.265Z,70.51
2017-11-23T13:40:27.000Z,70.51
2017-11-23T13:41:30.833Z,70.42
2017-11-23T13:42:34.727Z,70.44
2017-11-23T13:44:57.915Z,70.04
2017-11-23T13:46:01.697Z,71.20
2017-11-23T13:47:05.741Z,70.43
2017-11-23T13:48:09.584Z,70.31
2017-11-23T13:49:13.399Z,70.30
2017-11-23T13:50:17.497Z,70.24
2017-11-23T13:51:21.723Z,70.61
2017-11-23T13:52:25.493Z,70.50
2017-11-23T13:53:29.214Z,70.94
2017-11-23T13:54:32.879Z,70.78
2017-11-23T13:55:36.615Z,70.73
2017-11-23T13:56:40.204Z,70.82
2017-11-23T13:57:44.293Z,70.74
2017-11-23T13:58:48.120Z,70.73
2017-11-23T13:59:51.948Z,71.51
2017-11-23T14:00:56.500Z,71.30
2017-11-23T14:02:00.509Z,71.58
2017-11-23T14:03:04.381Z,72.04
2017-11-23T14:04:08.678Z,71.63
2017-11-23T14:05:12.583Z,71.25
2017-11-23T14:06:16.421Z,71.01
2017-11-23T14:07:20.256Z,71.30
2017-11-23T14:08:23.974Z,71.23
2017-11-23T14:09:27.776Z,70.95
2017-11-23T14:10:32.569Z,69.26
2017-11-23T14:11:36.287Z,69.69
2017-11-23T14:12:40.173Z,70.31
2017-11-23T14:13:46.503Z,70.82
2017-11-23T14:14:50.553Z,70.67
2017-11-23T14:15:54.227Z,70.60
2017-11-23T14:16:58.314Z,70.79
2017-11-23T14:18:02.082Z,71.29
2017-11-23T14:19:05.915Z,71.14
2017-11-23T14:20:09.700Z,72.13
2017-11-23T14:21:13.441Z,72.51